createdAt,value
2019-03-27T00:00:42.017Z,1003.49
2019-03-27T00:01:42.138Z,1003.50
2019-03-27T00:02:42.289Z,1003.51
2019-03-27T00:03:42.403Z,1003.49
2019-03-27T00:04:42.539Z,1003.52
2019-03-27T00:05:42.672Z,1003.48
2019-03-27T00:06:42.798Z,1003.46
2019-03-27T00:07:42.935Z,1003.47
2019-03-27T00:08:43.144Z,1003.46
2019-03-27T00:09:43.198Z,1003.46
2019-03-27T00:10:43.316Z,1003.45
2019-03-27T00:11:43.464Z,1003.49
2019-03-27T00:12:43.595Z,1003.38
2019-03-27T00:13:43.726Z,1003.37
2019-03-27T00:14:43.857Z,1003.33
2019-03-27T00:15:43.994Z,1003.35
2019-03-27T00:16:44.112Z,1003.42
2019-03-27T00:17:44.242Z,1003.38
2019-03-27T00:18:44.405Z,1003.45
2019-03-27T00:19:44.535Z,1003.46
2019-03-27T00:20:44.665Z,1003.45
2019-03-27T00:21:44.792Z,1003.46
2019-03-27T00:22:44.937Z,1003.47
2019-03-27T00:23:45.054Z,1003.41
2019-03-27T00:24:45.183Z,1003.47
2019-03-27T00:25:45.311Z,1003.49
2019-03-27T00:26:45.458Z,1003.50
2019-03-27T00:27:45.585Z,1003.47
2019-03-27T00:28:45.710Z,1003.50
2019-03-27T00:29:45.863Z,1003.49
2019-03-27T00:30:45.992Z,1003.47
2019-03-27T00:31:46.120Z,1003.44
2019-03-27T00:32:46.248Z,1003.47
2019-03-27T00:33:46.402Z,1003.48
2019-03-27T00:34:46.536Z,1003.45
2019-03-27T00:35:46.660Z,1003.47
2019-03-27T00:36:46.797Z,1003.43
2019-03-27T00:37:46.983Z,1003.44
2019-03-27T00:38:47.091Z,1003.43
2019-03-27T00:39:47.221Z,1003.47
2019-03-27T00:40:47.374Z,1003.50
2019-03-27T00:41:47.489Z,1003.50
2019-03-27T00:42:47.617Z,1003.49
2019-03-27T00:43:47.758Z,1003.51
2019-03-27T00:44:47.911Z,1003.51
2019-03-27T00:45:48.037Z,1003.48
2019-03-27T00:46:48.155Z,1003.50
2019-03-27T00:47:48.286Z,1003.47
2019-03-27T00:48:48.436Z,1003.49
2019-03-27T00:49:48.553Z,1003.48
2019-03-27T00:50:48.688Z,1003.49
2019-03-27T00:51:48.815Z,1003.46
2019-03-27T00:52:48.952Z,1003.44
2019-03-27T00:53:49.074Z,1003.48
2019-03-27T00:54:49.197Z,1003.51
2019-03-27T00:55:49.333Z,1003.55
2019-03-27T00:56:49.487Z,1003.54
2019-03-27T00:57:49.600Z,1003.57
2019-03-27T00:58:49.727Z,1003.55
2019-03-27T00:59:49.855Z,1003.54
2019-03-27T01:00:50.009Z,1003.54
2019-03-27T01:01:50.133Z,1003.56
2019-03-27T01:02:50.254Z,1003.55
2019-03-27T01:03:50.379Z,1003.57
2019-03-27T01:04:50.512Z,1003.56
2019-03-27T01:05:50.635Z,1003.54
2019-03-27T01:06:51.189Z,1003.55
2019-03-27T01:07:50.892Z,1003.52
2019-03-27T01:08:51.041Z,1003.53
2019-03-27T01:09:51.168Z,1003.53
2019-03-27T01:10:51.291Z,1003.49
2019-03-27T01:11:51.428Z,1003.53
2019-03-27T01:12:51.547Z,1003.55
2019-03-27T01:13:51.672Z,1003.56
2019-03-27T01:14:51.801Z,1003.61
2019-03-27T01:15:51.929Z,1003.57
2019-03-27T01:16:52.057Z,1003.57
2019-03-27T01:17:52.193Z,1003.56
2019-03-27T01:18:52.304Z,1003.55
2019-03-27T01:19:52.427Z,1003.58
2019-03-27T01:20:52.610Z,1003.56
2019-03-27T01:21:52.704Z,1003.56
2019-03-27T01:22:52.829Z,1003.49
2019-03-27T01:23:52.960Z,1003.53
2019-03-27T01:24:53.090Z,1003.52
2019-03-27T01:25:53.219Z,1003.54
2019-03-27T01:26:53.340Z,1003.56
2019-03-27T01:27:53.468Z,1003.55
2019-03-27T01:28:53.611Z,1003.55
2019-03-27T01:29:53.739Z,1003.55
2019-03-27T01:30:53.867Z,1003.51
2019-03-27T01:31:53.998Z,1003.52
2019-03-27T01:32:54.140Z,1003.51
2019-03-27T01:33:54.268Z,1003.50
2019-03-27T01:34:54.392Z,1003.48
2019-03-27T01:35:54.540Z,1003.52
2019-03-27T01:36:54.662Z,1003.51
2019-03-27T01:37:54.791Z,1003.51
2019-03-27T01:38:54.937Z,1003.53
2019-03-27T01:39:55.072Z,1003.53
2019-03-27T01:40:55.199Z,1003.53
2019-03-27T01:41:55.335Z,1003.55
2019-03-27T01:42:55.475Z,1003.51
2019-03-27T01:43:55.599Z,1003.50
2019-03-27T01:44:55.740Z,1003.50
2019-03-27T01:45:55.868Z,1003.52
2019-03-27T01:46:55.993Z,1003.52
2019-03-27T01:47:56.119Z,1003.51
2019-03-27T01:48:56.249Z,1003.52
2019-03-27T01:49:56.380Z,1003.53
2019-03-27T01:50:56.506Z,1003.51
2019-03-27T01:51:56.637Z,1003.54
2019-03-27T01:52:56.761Z,1003.54
2019-03-27T01:53:56.915Z,1003.51
2019-03-27T01:54:57.034Z,1003.49
2019-03-27T01:55:57.169Z,1003.46
2019-03-27T01:56:57.296Z,1003.49
2019-03-27T01:57:57.438Z,1003.45
2019-03-27T01:58:57.559Z,1003.45
2019-03-27T01:59:57.688Z,1003.41
2019-03-27T02:00:57.908Z,1003.44
2019-03-27T02:01:57.967Z,1003.45
2019-03-27T02:02:58.091Z,1003.43
2019-03-27T02:03:58.219Z,1003.44
2019-03-27T02:04:58.345Z,1003.50
2019-03-27T02:05:58.484Z,1003.50
2019-03-27T02:06:58.613Z,1003.52
2019-03-27T02:07:58.743Z,1003.46
2019-03-27T02:08:58.866Z,1003.48
2019-03-27T02:09:59.000Z,1003.43
2019-03-27T02:10:59.136Z,1003.42
2019-03-27T02:11:59.337Z,1003.45
2019-03-27T02:12:59.378Z,1003.42
2019-03-27T02:13:59.530Z,1003.43
2019-03-27T02:14:59.652Z,1003.45
2019-03-27T02:16:06.726Z,1003.44
2019-03-27T02:16:59.916Z,1003.44
2019-03-27T02:18:00.064Z,1003.46
2019-03-27T02:19:00.169Z,1003.46
2019-03-27T02:20:00.465Z,1003.48
2019-03-27T02:21:00.416Z,1003.49
2019-03-27T02:22:00.568Z,1003.48
2019-03-27T02:23:00.691Z,1003.47
2019-03-27T02:24:00.814Z,1003.45
2019-03-27T02:25:00.937Z,1003.48
2019-03-27T02:26:01.067Z,1003.51
2019-03-27T02:27:01.188Z,1003.51
2019-03-27T02:28:01.327Z,1003.47
2019-03-27T02:29:01.455Z,1003.54
2019-03-27T02:30:01.575Z,1003.56
2019-03-27T02:31:01.693Z,1003.57
2019-03-27T02:32:01.821Z,1003.58
2019-03-27T02:33:01.951Z,1003.57
2019-03-27T02:34:02.113Z,1003.55
2019-03-27T02:35:02.214Z,1003.54
2019-03-27T02:36:02.343Z,1003.56
2019-03-27T02:37:02.461Z,1003.55
2019-03-27T02:38:02.596Z,1003.58
2019-03-27T02:39:02.724Z,1003.52
2019-03-27T02:40:02.865Z,1003.52
2019-03-27T02:41:02.999Z,1003.55
2019-03-27T02:42:03.138Z,1003.56
2019-03-27T02:43:03.261Z,1003.58
2019-03-27T02:44:03.397Z,1003.59
2019-03-27T02:45:03.519Z,1003.62
2019-03-27T02:46:03.649Z,1003.58
2019-03-27T02:47:03.771Z,1003.62
2019-03-27T02:48:03.902Z,1003.58
2019-03-27T02:49:04.047Z,1003.58
2019-03-27T02:50:04.172Z,1003.56
2019-03-27T02:51:04.310Z,1003.55
2019-03-27T02:52:04.439Z,1003.60
2019-03-27T02:53:04.566Z,1003.59
2019-03-27T02:54:04.688Z,1003.61
2019-03-27T02:55:04.814Z,1003.64
2019-03-27T02:56:04.930Z,1003.62
2019-03-27T02:57:05.067Z,1003.66
2019-03-27T02:58:05.190Z,1003.67
2019-03-27T02:59:05.319Z,1003.59
2019-03-27T03:00:05.460Z,1003.62
2019-03-27T03:01:05.581Z,1003.62
2019-03-27T03:02:05.706Z,1003.61
2019-03-27T03:03:05.846Z,1003.61
2019-03-27T03:04:05.961Z,1003.65
2019-03-27T03:05:06.088Z,1003.59
2019-03-27T03:06:06.221Z,1003.57
2019-03-27T03:07:06.342Z,1003.52
2019-03-27T03:08:06.493Z,1003.53
2019-03-27T03:09:06.626Z,1003.52
2019-03-27T03:10:06.748Z,1003.50
2019-03-27T03:11:06.873Z,1003.48
2019-03-27T03:12:07.026Z,1003.45
2019-03-27T03:13:07.155Z,1003.48
2019-03-27T03:14:07.283Z,1003.47
2019-03-27T03:15:07.416Z,1003.47
2019-03-27T03:16:07.547Z,1003.49
2019-03-27T03:17:07.667Z,1003.47
2019-03-27T03:18:07.808Z,1003.51
2019-03-27T03:19:07.924Z,1003.51
2019-03-27T03:20:08.078Z,1003.54
2019-03-27T03:21:08.195Z,1003.52
2019-03-27T03:22:08.313Z,1003.56
2019-03-27T03:23:08.446Z,1003.49
2019-03-27T03:24:08.595Z,1003.53
2019-03-27T03:25:08.727Z,1003.52
2019-03-27T03:26:08.845Z,1003.54
2019-03-27T03:27:08.992Z,1003.56
2019-03-27T03:28:09.127Z,1003.57
2019-03-27T03:29:09.241Z,1003.53
2019-03-27T03:30:09.379Z,1003.54
2019-03-27T03:31:09.505Z,1003.56
2019-03-27T03:32:09.626Z,1003.57
2019-03-27T03:33:09.778Z,1003.57
2019-03-27T03:34:09.896Z,1003.57
2019-03-27T03:35:10.024Z,1003.61
2019-03-27T03:36:10.154Z,1003.61
2019-03-27T03:37:10.280Z,1003.61
2019-03-27T03:38:10.406Z,1003.61
2019-03-27T03:39:10.534Z,1003.61
2019-03-27T03:40:10.662Z,1003.62
2019-03-27T03:41:10.793Z,1003.62
2019-03-27T03:42:10.918Z,1003.61
2019-03-27T03:43:11.043Z,1003.58
2019-03-27T03:44:11.171Z,1003.60
2019-03-27T03:45:11.426Z,1003.65
2019-03-27T03:46:11.530Z,1003.65
2019-03-27T03:47:11.563Z,1003.68
2019-03-27T03:48:11.701Z,1003.64
2019-03-27T03:49:11.838Z,1003.67
2019-03-27T03:50:11.971Z,1003.66
2019-03-27T03:51:12.082Z,1003.67
2019-03-27T03:52:12.215Z,1003.68
2019-03-27T03:53:12.365Z,1003.68
2019-03-27T03:54:12.471Z,1003.68
2019-03-27T03:55:12.604Z,1003.67
2019-03-27T03:56:12.729Z,1003.68
2019-03-27T03:57:12.861Z,1003.70
2019-03-27T03:58:12.979Z,1003.67
2019-03-27T03:59:13.118Z,1003.70
2019-03-27T04:00:13.339Z,1003.67
2019-03-27T04:01:13.368Z,1003.70
2019-03-27T04:02:13.503Z,1003.69
2019-03-27T04:03:13.627Z,1003.73
2019-03-27T04:04:13.759Z,1003.73
2019-03-27T04:05:13.882Z,1003.74
2019-03-27T04:06:14.048Z,1003.77
2019-03-27T04:07:14.143Z,1003.77
2019-03-27T04:08:14.273Z,1003.83
2019-03-27T04:09:14.410Z,1003.75
2019-03-27T04:10:14.541Z,1003.76
2019-03-27T04:11:14.679Z,1003.73
2019-03-27T04:12:14.804Z,1003.74
2019-03-27T04:13:14.929Z,1003.73
2019-03-27T04:14:15.058Z,1003.73
2019-03-27T04:15:15.208Z,1003.73
2019-03-27T04:16:15.363Z,1003.71
2019-03-27T04:17:17.612Z,1003.73
2019-03-27T04:18:15.607Z,1003.77
2019-03-27T04:19:15.749Z,1003.79
2019-03-27T04:20:15.869Z,1003.83
2019-03-27T04:21:16.012Z,1003.87
2019-03-27T04:22:16.129Z,1003.89
2019-03-27T04:23:16.266Z,1003.87
2019-03-27T04:24:16.390Z,1003.89
2019-03-27T04:25:16.510Z,1003.87
2019-03-27T04:26:16.639Z,1003.91
2019-03-27T04:27:16.802Z,1003.89
2019-03-27T04:28:16.909Z,1003.90
2019-03-27T04:29:17.050Z,1003.92
2019-03-27T04:30:17.174Z,1003.97
2019-03-27T04:31:17.316Z,1003.96
2019-03-27T04:32:17.441Z,1003.98
2019-03-27T04:33:17.571Z,1003.96
2019-03-27T04:34:17.705Z,1003.93
2019-03-27T04:35:17.843Z,1003.95
2019-03-27T04:36:17.973Z,1003.94
2019-03-27T04:37:18.092Z,1003.95
2019-03-27T04:38:18.218Z,1003.93
2019-03-27T04:39:18.349Z,1003.93
2019-03-27T04:40:18.477Z,1004.01
2019-03-27T04:41:18.606Z,1003.92
2019-03-27T04:42:18.763Z,1003.98
2019-03-27T04:43:18.877Z,1003.97
2019-03-27T04:44:19.004Z,1003.98
2019-03-27T04:45:19.128Z,1004.01
2019-03-27T04:46:19.278Z,1004.00
2019-03-27T04:47:31.500Z,1004.00
2019-03-27T04:48:19.529Z,1004.00
2019-03-27T04:49:19.735Z,1004.02
2019-03-27T04:50:20.009Z,1004.00
2019-03-27T04:51:19.896Z,1003.98
2019-03-27T04:52:20.054Z,1003.99
2019-03-27T04:53:20.184Z,1003.94
2019-03-27T04:54:20.319Z,1003.94
2019-03-27T04:55:20.448Z,1003.95
2019-03-27T04:56:20.574Z,1003.89
2019-03-27T04:57:20.685Z,1003.93
2019-03-27T04:58:20.820Z,1003.93
2019-03-27T04:59:20.949Z,1003.96
2019-03-27T05:00:21.115Z,1003.96
2019-03-27T05:01:21.219Z,1003.97
2019-03-27T05:02:21.353Z,1004.01
2019-03-27T05:03:21.488Z,1004.01
2019-03-27T05:04:21.607Z,1004.03
2019-03-27T05:05:21.750Z,1004.04
2019-03-27T05:06:21.863Z,1004.03
2019-03-27T05:07:22.007Z,1004.08
2019-03-27T05:08:22.133Z,1004.03
2019-03-27T05:09:22.249Z,1004.03
2019-03-27T05:10:22.379Z,1004.01
2019-03-27T05:11:22.511Z,1003.99
2019-03-27T05:12:22.720Z,1004.02
2019-03-27T05:13:22.774Z,1004.00
2019-03-27T05:14:22.898Z,1003.95
2019-03-27T05:15:23.027Z,1003.93
2019-03-27T05:16:23.169Z,1003.93
2019-03-27T05:17:23.282Z,1003.94
2019-03-27T05:18:23.414Z,1003.90
2019-03-27T05:19:23.544Z,1003.89
2019-03-27T05:20:23.696Z,1003.83
2019-03-27T05:21:23.815Z,1003.91
2019-03-27T05:22:23.945Z,1003.91
2019-03-27T05:23:24.075Z,1003.89
2019-03-27T05:24:24.256Z,1003.91
2019-03-27T05:25:24.366Z,1003.91
2019-03-27T05:26:24.490Z,1003.91
2019-03-27T05:27:24.622Z,1003.91
2019-03-27T05:28:24.789Z,1003.93
2019-03-27T05:29:24.951Z,1003.91
2019-03-27T05:30:25.015Z,1003.94
2019-03-27T05:31:25.139Z,1003.98
2019-03-27T05:32:25.300Z,1003.98
2019-03-27T05:33:25.411Z,1004.01
2019-03-27T05:34:25.536Z,1004.00
2019-03-27T05:35:25.681Z,1004.00
2019-03-27T05:36:25.813Z,1004.01
2019-03-27T05:37:25.929Z,1004.00
2019-03-27T05:38:26.082Z,1004.01
2019-03-27T05:39:26.194Z,1004.00
2019-03-27T05:40:26.319Z,1004.04
2019-03-27T05:41:26.448Z,1004.07
2019-03-27T05:42:26.589Z,1004.07
2019-03-27T05:43:26.722Z,1004.02
2019-03-27T05:44:26.848Z,1004.01
2019-03-27T05:45:26.989Z,1004.00
2019-03-27T05:46:27.113Z,1004.03
2019-03-27T05:47:27.243Z,1004.00
2019-03-27T05:48:27.372Z,1004.03
2019-03-27T05:49:27.501Z,1004.03
2019-03-27T05:50:27.623Z,1004.03
2019-03-27T05:51:27.786Z,1004.00
2019-03-27T05:52:27.922Z,1004.00
2019-03-27T05:53:28.042Z,1004.03
2019-03-27T05:54:28.171Z,1004.08
2019-03-27T05:55:28.305Z,1004.07
2019-03-27T05:56:28.430Z,1004.10
2019-03-27T05:57:28.561Z,1004.09
2019-03-27T05:58:28.678Z,1004.11
2019-03-27T05:59:28.815Z,1004.18
2019-03-27T06:00:28.941Z,1004.17
2019-03-27T06:01:29.075Z,1004.20
2019-03-27T06:02:29.208Z,1004.20
2019-03-27T06:03:29.356Z,1004.27
2019-03-27T06:04:29.471Z,1004.21
2019-03-27T06:05:29.595Z,1004.26
2019-03-27T06:06:29.729Z,1004.27
2019-03-27T06:07:29.873Z,1004.23
2019-03-27T06:08:30.004Z,1004.25
2019-03-27T06:09:30.127Z,1004.28
2019-03-27T06:10:30.253Z,1004.29
2019-03-27T06:11:30.378Z,1004.29
2019-03-27T06:12:30.512Z,1004.32
2019-03-27T06:13:30.639Z,1004.36
2019-03-27T06:14:30.793Z,1004.37
2019-03-27T06:15:30.915Z,1004.41
2019-03-27T06:16:31.043Z,1004.43
2019-03-27T06:17:31.180Z,1004.43
2019-03-27T06:18:31.305Z,1004.46
2019-03-27T06:19:31.424Z,1004.48
2019-03-27T06:20:31.552Z,1004.51
2019-03-27T06:21:31.678Z,1004.56
2019-03-27T06:22:31.801Z,1004.52
2019-03-27T06:23:32.016Z,1004.53
2019-03-27T06:24:32.097Z,1004.51
2019-03-27T06:25:32.210Z,1004.44
2019-03-27T06:26:32.337Z,1004.43
2019-03-27T06:27:32.469Z,1004.44
2019-03-27T06:28:32.599Z,1004.44
2019-03-27T06:29:32.724Z,1004.42
2019-03-27T06:30:32.860Z,1004.44
2019-03-27T06:31:33.001Z,1004.45
2019-03-27T06:32:33.113Z,1004.45
2019-03-27T06:33:33.242Z,1004.43
2019-03-27T06:34:33.363Z,1004.38
2019-03-27T06:35:33.487Z,1004.41
2019-03-27T06:36:33.629Z,1004.41
2019-03-27T06:37:33.750Z,1004.45
2019-03-27T06:38:33.878Z,1004.50
2019-03-27T06:39:34.000Z,1004.54
2019-03-27T06:40:34.159Z,1004.51
2019-03-27T06:41:34.278Z,1004.51
2019-03-27T06:42:34.409Z,1004.48
2019-03-27T06:43:34.533Z,1004.52
2019-03-27T06:44:34.666Z,1004.48
2019-03-27T06:45:34.790Z,1004.49
2019-03-27T06:46:34.919Z,1004.45
2019-03-27T06:47:35.049Z,1004.43
2019-03-27T06:48:35.178Z,1004.43
2019-03-27T06:49:35.309Z,1004.47
2019-03-27T06:50:35.424Z,1004.49
2019-03-27T06:51:40.368Z,1004.50
2019-03-27T06:52:35.682Z,1004.51
2019-03-27T06:53:35.810Z,1004.54
2019-03-27T06:54:35.943Z,1004.57
2019-03-27T06:55:36.067Z,1004.54
2019-03-27T06:56:36.196Z,1004.57
2019-03-27T06:57:36.325Z,1004.57
2019-03-27T06:58:36.450Z,1004.58
2019-03-27T06:59:36.641Z,1004.59
2019-03-27T07:00:36.648Z,1004.58
2019-03-27T07:01:36.774Z,1004.63
2019-03-27T07:02:36.898Z,1004.62
2019-03-27T07:03:37.052Z,1004.64
2019-03-27T07:04:37.170Z,1004.62
2019-03-27T07:05:37.300Z,1004.63
2019-03-27T07:06:37.484Z,1004.67
2019-03-27T07:07:37.569Z,1004.67
2019-03-27T07:08:37.699Z,1004.74
2019-03-27T07:09:37.828Z,1004.78
2019-03-27T07:10:38.051Z,1004.83
2019-03-27T07:11:38.121Z,1004.85
2019-03-27T07:12:38.253Z,1004.88
2019-03-27T07:13:38.375Z,1004.92
2019-03-27T07:14:38.532Z,1004.95
2019-03-27T07:15:38.658Z,1004.92
2019-03-27T07:16:38.782Z,1004.93
2019-03-27T07:17:38.915Z,1004.98
2019-03-27T07:18:40.464Z,1004.92
2019-03-27T07:19:39.187Z,1004.96
2019-03-27T07:20:41.082Z,1004.97
2019-03-27T07:21:39.453Z,1004.97
2019-03-27T07:22:39.585Z,1004.95
2019-03-27T07:23:39.703Z,1005.02
2019-03-27T07:24:39.839Z,1005.02
2019-03-27T07:25:39.988Z,1005.03
2019-03-27T07:26:40.129Z,1005.04
2019-03-27T07:27:40.233Z,1005.04
2019-03-27T07:28:40.430Z,1005.04
2019-03-27T07:29:40.516Z,1005.03
2019-03-27T07:30:40.640Z,1005.07
2019-03-27T07:31:40.760Z,1005.06
2019-03-27T07:32:40.888Z,1005.06
2019-03-27T07:33:41.030Z,1005.12
2019-03-27T07:34:41.158Z,1005.07
2019-03-27T07:35:41.281Z,1005.13
2019-03-27T07:36:41.410Z,1005.12
2019-03-27T07:37:41.539Z,1005.15
2019-03-27T07:38:41.668Z,1005.19
2019-03-27T07:39:41.798Z,1005.19
2019-03-27T07:40:41.952Z,1005.22
2019-03-27T07:41:42.068Z,1005.27
2019-03-27T07:42:42.196Z,1005.26
2019-03-27T07:43:42.334Z,1005.28
2019-03-27T07:44:42.476Z,1005.29
2019-03-27T07:45:42.615Z,1005.28
2019-03-27T07:46:42.736Z,1005.29
2019-03-27T07:47:42.924Z,1005.27
2019-03-27T07:48:53.262Z,1005.30
2019-03-27T07:49:43.160Z,1005.28
2019-03-27T07:50:43.376Z,1005.27
2019-03-27T07:51:43.376Z,1005.28
2019-03-27T07:52:43.508Z,1005.28
2019-03-27T07:53:43.635Z,1005.28
2019-03-27T07:54:43.770Z,1005.27
2019-03-27T07:55:43.902Z,1005.27
2019-03-27T07:56:44.056Z,1005.23
2019-03-27T07:57:44.171Z,1005.23
2019-03-27T07:58:44.289Z,1005.24
2019-03-27T07:59:44.423Z,1005.28
2019-03-27T08:00:44.543Z,1005.28
2019-03-27T08:01:44.668Z,1005.25
2019-03-27T08:02:44.796Z,1005.28
2019-03-27T08:03:44.950Z,1005.26
2019-03-27T08:04:45.075Z,1005.29
2019-03-27T08:05:45.207Z,1005.27
2019-03-27T08:06:45.348Z,1005.31
2019-03-27T08:07:45.502Z,1005.32
2019-03-27T08:08:45.621Z,1005.32
2019-03-27T08:09:45.757Z,1005.32
2019-03-27T08:10:45.883Z,1005.30
2019-03-27T08:11:46.013Z,1005.29
2019-03-27T08:12:46.217Z,1005.35
2019-03-27T08:13:46.281Z,1005.28
2019-03-27T08:14:47.360Z,1005.29
2019-03-27T08:15:46.491Z,1005.32
2019-03-27T08:16:46.616Z,1005.28
2019-03-27T08:17:46.801Z,1005.31
2019-03-27T08:18:46.925Z,1005.37
2019-03-27T08:19:47.059Z,1005.37
2019-03-27T08:20:47.185Z,1005.39
2019-03-27T08:21:47.339Z,1005.39
2019-03-27T08:22:47.465Z,1005.39
2019-03-27T08:23:47.585Z,1005.41
2019-03-27T08:24:47.730Z,1005.35
2019-03-27T08:25:47.861Z,1005.35
2019-03-27T08:26:47.983Z,1005.38
2019-03-27T08:27:48.130Z,1005.37
2019-03-27T08:28:48.261Z,1005.38
2019-03-27T08:29:48.393Z,1005.31
2019-03-27T08:30:48.637Z,1005.31
2019-03-27T08:31:48.706Z,1005.32
2019-03-27T08:32:48.774Z,1005.33
2019-03-27T08:33:48.909Z,1005.32
2019-03-27T08:34:49.057Z,1005.36
2019-03-27T08:35:49.219Z,1005.35
2019-03-27T08:36:49.325Z,1005.34
2019-03-27T08:37:49.475Z,1005.36
2019-03-27T08:38:49.599Z,1005.35
2019-03-27T08:39:49.731Z,1005.42
2019-03-27T08:40:49.857Z,1005.38
2019-03-27T08:41:50.002Z,1005.38
2019-03-27T08:42:50.131Z,1005.39
2019-03-27T08:43:50.268Z,1005.39
2019-03-27T08:44:50.407Z,1005.36
2019-03-27T08:45:50.554Z,1005.35
2019-03-27T08:46:50.678Z,1005.36
2019-03-27T08:47:50.809Z,1005.34
2019-03-27T08:48:50.948Z,1005.39
2019-03-27T08:49:51.077Z,1005.38
2019-03-27T08:50:51.195Z,1005.37
2019-03-27T08:51:51.336Z,1005.43
2019-03-27T08:52:51.465Z,1005.38
2019-03-27T08:53:51.593Z,1005.42
2019-03-27T08:54:51.724Z,1005.40
2019-03-27T08:55:51.888Z,1005.42
2019-03-27T08:56:51.998Z,1005.40
2019-03-27T08:57:52.133Z,1005.40
2019-03-27T08:58:52.251Z,1005.40
2019-03-27T08:59:52.405Z,1005.39
2019-03-27T09:00:52.535Z,1005.44
2019-03-27T09:01:52.655Z,1005.39
2019-03-27T09:02:52.791Z,1005.44
2019-03-27T09:03:52.944Z,1005.41
2019-03-27T09:04:53.070Z,1005.39
2019-03-27T09:05:53.191Z,1005.38
2019-03-27T09:06:53.325Z,1005.40
2019-03-27T09:07:53.469Z,1005.38
2019-03-27T09:08:53.593Z,1005.37
2019-03-27T09:09:53.732Z,1005.40
2019-03-27T09:10:53.871Z,1005.41
2019-03-27T09:11:53.992Z,1005.38
2019-03-27T09:12:54.126Z,1005.41
2019-03-27T09:13:54.249Z,1005.38
2019-03-27T09:14:54.406Z,1005.36
2019-03-27T09:15:54.528Z,1005.36
2019-03-27T09:16:54.646Z,1005.40
2019-03-27T09:17:54.776Z,1005.39
2019-03-27T09:18:54.924Z,1005.44
2019-03-27T09:19:55.061Z,1005.43
2019-03-27T09:20:55.179Z,1005.45
2019-03-27T09:21:55.316Z,1005.44
2019-03-27T09:22:55.437Z,1005.42
2019-03-27T09:23:55.565Z,1005.45
2019-03-27T09:24:55.695Z,1005.44
2019-03-27T09:25:55.813Z,1005.43
2019-03-27T09:26:55.942Z,1005.45
2019-03-27T09:27:56.073Z,1005.47
2019-03-27T09:28:56.207Z,1005.46
2019-03-27T09:29:56.329Z,1005.49
2019-03-27T09:30:56.459Z,1005.53
2019-03-27T09:31:56.584Z,1005.52
2019-03-27T09:32:56.711Z,1005.53
2019-03-27T09:33:56.836Z,1005.51
2019-03-27T09:34:56.967Z,1005.51
2019-03-27T09:35:57.120Z,1005.49
2019-03-27T09:36:57.229Z,1005.51
2019-03-27T09:37:57.365Z,1005.52
2019-03-27T09:38:57.493Z,1005.53
2019-03-27T09:39:57.623Z,1005.52
2019-03-27T09:40:57.764Z,1005.55
2019-03-27T09:41:57.889Z,1005.50
2019-03-27T09:42:58.008Z,1005.55
2019-03-27T09:43:58.140Z,1005.54
2019-03-27T09:44:58.271Z,1005.54
2019-03-27T09:45:58.403Z,1005.57
2019-03-27T09:46:58.528Z,1005.54
2019-03-27T09:47:58.664Z,1005.59
2019-03-27T09:48:58.783Z,1005.56
2019-03-27T09:49:58.922Z,1005.60
2019-03-27T09:50:59.039Z,1005.57
2019-03-27T09:51:59.192Z,1005.57
2019-03-27T09:52:59.302Z,1005.58
2019-03-27T09:53:59.432Z,1005.58
2019-03-27T09:54:59.575Z,1005.58
2019-03-27T09:55:59.707Z,1005.56
2019-03-27T09:56:59.837Z,1005.56
2019-03-27T09:57:59.952Z,1005.56
2019-03-27T09:59:00.103Z,1005.60
2019-03-27T10:00:00.402Z,1005.56
2019-03-27T10:01:00.352Z,1005.56
2019-03-27T10:02:00.486Z,1005.58
2019-03-27T10:03:00.625Z,1005.59
2019-03-27T10:04:00.756Z,1005.55
2019-03-27T10:05:00.879Z,1005.57
2019-03-27T10:06:01.013Z,1005.56
2019-03-27T10:07:01.169Z,1005.59
2019-03-27T10:08:01.298Z,1005.60
2019-03-27T10:09:01.430Z,1005.57
2019-03-27T10:10:01.558Z,1005.53
2019-03-27T10:11:01.699Z,1005.58
2019-03-27T10:12:01.820Z,1005.59
2019-03-27T10:13:01.952Z,1005.57
2019-03-27T10:14:02.106Z,1005.55
2019-03-27T10:15:02.231Z,1005.54
2019-03-27T10:16:02.372Z,1005.56
2019-03-27T10:17:02.531Z,1005.62
2019-03-27T10:18:02.643Z,1005.55
2019-03-27T10:19:02.780Z,1005.55
2019-03-27T10:20:04.196Z,1005.60
2019-03-27T10:21:03.034Z,1005.56
2019-03-27T10:22:03.177Z,1005.59
2019-03-27T10:23:03.329Z,1005.59
2019-03-27T10:24:03.441Z,1005.54
2019-03-27T10:25:03.586Z,1005.54
2019-03-27T10:26:03.734Z,1005.55
2019-03-27T10:27:03.860Z,1005.56
2019-03-27T10:28:03.988Z,1005.54
2019-03-27T10:29:04.121Z,1005.56
2019-03-27T10:30:04.287Z,1005.47
2019-03-27T10:31:04.429Z,1005.52
2019-03-27T10:32:04.551Z,1005.49
2019-03-27T10:33:04.684Z,1005.51
2019-03-27T10:34:04.813Z,1005.53
2019-03-27T10:35:04.952Z,1005.49
2019-03-27T10:36:05.072Z,1005.49
2019-03-27T10:37:05.207Z,1005.46
2019-03-27T10:38:05.333Z,1005.48
2019-03-27T10:39:05.470Z,1005.45
2019-03-27T10:40:05.627Z,1005.45
2019-03-27T10:41:05.737Z,1005.44
2019-03-27T10:42:05.872Z,1005.41
2019-03-27T10:43:06.018Z,1005.46
2019-03-27T10:44:06.143Z,1005.44
2019-03-27T10:45:06.363Z,1005.46
2019-03-27T10:46:06.423Z,1005.37
2019-03-27T10:47:06.575Z,1005.41
2019-03-27T10:48:06.706Z,1005.42
2019-03-27T10:49:06.833Z,1005.40
2019-03-27T10:50:16.987Z,1005.42
2019-03-27T10:51:07.129Z,1005.42
2019-03-27T10:52:07.263Z,1005.44
2019-03-27T10:53:07.400Z,1005.46
2019-03-27T10:54:07.531Z,1005.43
2019-03-27T10:55:07.660Z,1005.47
2019-03-27T10:56:07.799Z,1005.41
2019-03-27T10:57:07.934Z,1005.48
2019-03-27T10:58:08.073Z,1005.44
2019-03-27T10:59:08.199Z,1005.44
2019-03-27T11:00:08.340Z,1005.50
2019-03-27T11:01:08.473Z,1005.48
2019-03-27T11:02:08.644Z,1005.50
2019-03-27T11:03:08.735Z,1005.46
2019-03-27T11:04:08.874Z,1005.44
2019-03-27T11:05:08.999Z,1005.42
2019-03-27T11:06:09.176Z,1005.45
2019-03-27T11:07:09.280Z,1005.43
2019-03-27T11:08:11.465Z,1005.58
2019-03-27T11:09:09.554Z,1005.56
2019-03-27T11:10:09.706Z,1005.58
2019-03-27T11:11:09.830Z,1005.74
2019-03-27T11:12:09.967Z,1005.63
2019-03-27T11:13:10.095Z,1005.59
2019-03-27T11:14:10.240Z,1005.56
2019-03-27T11:15:10.368Z,1005.61
2019-03-27T11:16:10.500Z,1005.57
2019-03-27T11:17:10.645Z,1005.61
2019-03-27T11:18:10.799Z,1005.59
2019-03-27T11:19:10.936Z,1005.55
2019-03-27T11:20:11.068Z,1005.57
2019-03-27T11:21:11.208Z,1005.59
2019-03-27T11:22:11.345Z,1005.56
2019-03-27T11:23:11.471Z,1005.55
2019-03-27T11:24:11.606Z,1005.57
2019-03-27T11:25:11.733Z,1005.58
2019-03-27T11:26:11.865Z,1005.51
2019-03-27T11:27:12.001Z,1005.52
2019-03-27T11:28:12.134Z,1005.49
2019-03-27T11:29:12.274Z,1005.53
2019-03-27T11:30:12.405Z,1005.50
2019-03-27T11:31:12.528Z,1005.52
2019-03-27T11:32:12.660Z,1005.54
2019-03-27T11:33:12.799Z,1005.49
2019-03-27T11:34:12.927Z,1005.53
2019-03-27T11:35:13.062Z,1005.49
2019-03-27T11:36:13.193Z,1005.53
2019-03-27T11:37:13.345Z,1005.51
2019-03-27T11:38:13.462Z,1005.52
2019-03-27T11:39:13.613Z,1005.49
2019-03-27T11:40:13.745Z,1005.51
2019-03-27T11:41:13.871Z,1005.63
2019-03-27T11:42:14.008Z,1005.63
2019-03-27T11:43:14.142Z,1005.51
2019-03-27T11:44:14.264Z,1005.48
2019-03-27T11:45:14.414Z,1005.49
2019-03-27T11:46:14.536Z,1005.53
2019-03-27T11:47:14.668Z,1005.51
2019-03-27T11:48:14.817Z,1005.49
2019-03-27T11:49:14.949Z,1005.47
2019-03-27T11:50:15.085Z,1005.51
2019-03-27T11:51:15.221Z,1005.49
2019-03-27T11:52:15.362Z,1005.49
2019-03-27T11:53:15.509Z,1005.48
2019-03-27T11:54:15.636Z,1005.47
2019-03-27T11:55:15.765Z,1005.47
2019-03-27T11:56:15.904Z,1005.48
2019-03-27T11:57:16.041Z,1005.45
2019-03-27T11:58:16.195Z,1005.46
2019-03-27T11:59:16.326Z,1005.43
2019-03-27T12:00:16.456Z,1005.40
2019-03-27T12:01:16.602Z,1005.38
2019-03-27T12:02:16.733Z,1005.43
2019-03-27T12:03:16.870Z,1005.44
2019-03-27T12:04:17.000Z,1005.43
2019-03-27T12:05:17.138Z,1005.42
2019-03-27T12:06:17.276Z,1005.45
2019-03-27T12:07:17.421Z,1005.41